sensor_id;sensor_type;location;lat;lon;timestamp;pressure;altitude;pressure_sealevel;temperature;humidity
69772;BME280;57046;45.988;18.664;2023-05-12T00:01:53;100463.97;;;12.97;100.00
69772;BME280;57046;45.988;18.664;2023-05-12T00:04:18;100463.28;;;13.00;100.00
69772;BME280;57046;45.988;18.664;2023-05-12T00:06:43;100460.00;;;12.94;100.00
69772;BME280;57046;45.988;18.664;2023-05-12T00:09:09;100456.97;;;12.96;100.00
69772;BME280;57046;45.988;18.664;2023-05-12T00:11:36;100460.69;;;12.91;100.00
69772;BME280;57046;45.988;18.664;2023-05-12T00:14:01;100461.47;;;12.92;100.00
69772;BME280;57046;45.988;18.664;2023-05-12T00:16:26;100465.78;;;12.93;100.00
69772;BME280;57046;45.988;18.664;2023-05-12T00:18:52;100458.41;;;12.93;100.00
69772;BME280;57046;45.988;18.664;2023-05-12T00:21:17;100462.03;;;12.97;100.00
69772;BME280;57046;45.988;18.664;2023-05-12T00:23:42;100462.03;;;12.97;100.00
69772;BME280;57046;45.988;18.664;2023-05-12T00:26:08;100460.00;;;12.94;100.00
69772;BME280;57046;45.988;18.664;2023-05-12T00:28:33;100463.53;;;12.95;100.00
69772;BME280;57046;45.988;18.664;2023-05-12T00:31:02;100461.59;;;12.95;100.00
69772;BME280;57046;45.988;18.664;2023-05-12T00:33:28;100444.84;;;12.93;100.00
69772;BME280;57046;45.988;18.664;2023-05-12T00:35:53;100456.19;;;12.95;100.00
69772;BME280;57046;45.988;18.664;2023-05-12T00:38:19;100463.06;;;12.93;100.00
69772;BME280;57046;45.988;18.664;2023-05-12T00:40:44;100460.00;;;12.94;100.00
69772;BME280;57046;45.988;18.664;2023-05-12T00:43:09;100441.31;;;12.81;100.00
69772;BME280;57046;45.988;18.664;2023-05-12T00:45:35;100464.63;;;12.94;100.00
69772;BME280;57046;45.988;18.664;2023-05-12T00:48:00;100460.00;;;12.94;100.00
69772;BME280;57046;45.988;18.664;2023-05-12T00:50:26;100457.03;;;12.87;100.00
69772;BME280;57046;45.988;18.664;2023-05-12T00:52:52;100461.13;;;12.93;100.00
69772;BME280;57046;45.988;18.664;2023-05-12T00:55:17;100465.88;;;12.96;100.00
69772;BME280;57046;45.988;18.664;2023-05-12T00:57:43;100466.22;;;12.95;100.00
69772;BME280;57046;45.988;18.664;2023-05-12T01:00:08;100461.25;;;12.97;100.00
69772;BME280;57046;45.988;18.664;2023-05-12T01:02:34;100458.41;;;12.93;100.00
69772;BME280;57046;45.988;18.664;2023-05-12T01:05:00;100453.34;;;12.92;100.00
69772;BME280;57046;45.988;18.664;2023-05-12T01:07:26;100468.38;;;13.01;100.00
69772;BME280;57046;45.988;18.664;2023-05-12T01:09:55;100476.84;;;13.00;100.00
69772;BME280;57046;45.988;18.664;2023-05-12T01:12:22;100476.09;;;12.99;100.00
69772;BME280;57046;45.988;18.664;2023-05-12T01:14:48;100468.38;;;13.01;100.00
69772;BME280;57046;45.988;18.664;2023-05-12T01:17:16;100461.59;;;12.95;100.00
69772;BME280;57046;45.988;18.664;2023-05-12T01:19:52;100445.75;;;12.85;100.00
69772;BME280;57046;45.988;18.664;2023-05-12T01:22:18;100464.44;;;12.99;100.00
69772;BME280;57046;45.988;18.664;2023-05-12T01:25:05;100465.69;;;13.01;100.00
69772;BME280;57046;45.988;18.664;2023-05-12T01:27:33;100468.59;;;12.96;100.00
69772;BME280;57046;45.988;18.664;2023-05-12T01:30:01;100464.88;;;13.01;100.00
69772;BME280;57046;45.988;18.664;2023-05-12T01:32:27;100465.56;;;12.98;100.00
69772;BME280;57046;45.988;18.664;2023-05-12T01:34:52;100464.09;;;13.00;100.00
69772;BME280;57046;45.988;18.664;2023-05-12T01:37:18;100463.84;;;12.93;100.00
69772;BME280;57046;45.988;18.664;2023-05-12T01:39:43;100467.59;;;13.01;100.00
69772;BME280;57046;45.988;18.664;2023-05-12T01:42:09;100471.56;;;13.03;100.00
69772;BME280;57046;45.988;18.664;2023-05-12T01:44:34;100473.16;;;13.04;100.00
69772;BME280;57046;45.988;18.664;2023-05-12T01:47:00;100469.63;;;13.04;100.00
69772;BME280;57046;45.988;18.664;2023-05-12T01:49:25;100472.34;;;13.04;100.00
69772;BME280;57046;45.988;18.664;2023-05-12T01:51:50;100470.44;;;13.04;100.00
69772;BME280;57046;45.988;18.664;2023-05-12T01:54:16;100470.31;;;13.01;100.00
69772;BME280;57046;45.988;18.664;2023-05-12T01:56:41;100471.09;;;13.01;100.00
69772;BME280;57046;45.988;18.664;2023-05-12T01:59:07;100464.56;;;13.02;100.00
69772;BME280;57046;45.988;18.664;2023-05-12T02:01:32;100466.34;;;12.98;100.00
69772;BME280;57046;45.988;18.664;2023-05-12T02:03:58;100460.00;;;12.94;100.00
69772;BME280;57046;45.988;18.664;2023-05-12T02:06:24;100452.31;;;12.96;100.00
69772;BME280;57046;45.988;18.664;2023-05-12T02:08:49;100464.56;;;13.02;100.00
69772;BME280;57046;45.988;18.664;2023-05-12T02:11:15;100462.53;;;12.99;100.00
69772;BME280;57046;45.988;18.664;2023-05-12T02:13:41;100457.66;;;12.93;100.00
69772;BME280;57046;45.988;18.664;2023-05-12T02:16:06;100460.13;;;12.98;100.00
69772;BME280;57046;45.988;18.664;2023-05-12T02:18:32;100455.81;;;12.97;100.00
69772;BME280;57046;45.988;18.664;2023-05-12T02:20:57;100455.50;;;12.98;100.00
69772;BME280;57046;45.988;18.664;2023-05-12T02:23:22;100459.81;;;12.99;100.00
69772;BME280;57046;45.988;18.664;2023-05-12T02:25:48;100444.09;;;12.93;100.00
69772;BME280;57046;45.988;18.664;2023-05-12T02:28:13;100453.47;;;12.95;100.00
69772;BME280;57046;45.988;18.664;2023-05-12T02:30:46;100462.03;;;12.97;100.00
69772;BME280;57046;45.988;18.664;2023-05-12T02:33:11;100474.63;;;13.02;100.00
69772;BME280;57046;45.988;18.664;2023-05-12T02:35:37;100461.06;;;13.02;100.00
69772;BME280;57046;45.988;18.664;2023-05-12T02:38:02;100462.16;;;13.01;100.00
69772;BME280;57046;45.988;18.664;2023-05-12T02:40:27;100475.06;;;13.04;100.00
69772;BME280;57046;45.988;18.664;2023-05-12T02:42:53;100472.34;;;13.04;100.00
69772;BME280;57046;45.988;18.664;2023-05-12T02:45:18;100463.84;;;12.93;100.00
69772;BME280;57046;45.988;18.664;2023-05-12T02:47:43;100470.31;;;13.01;100.00
69772;BME280;57046;45.988;18.664;2023-05-12T02:50:09;100463.97;;;12.97;100.00
69772;BME280;57046;45.988;18.664;2023-05-12T02:52:34;100463.28;;;13.00;100.00
69772;BME280;57046;45.988;18.664;2023-05-12T02:55:00;100452.53;;;12.91;100.00
69772;BME280;57046;45.988;18.664;2023-05-12T02:57:25;100461.38;;;13.00;100.00
69772;BME280;57046;45.988;18.664;2023-05-12T02:59:50;100459.00;;;12.99;100.00
69772;BME280;57046;45.988;18.664;2023-05-12T03:02:15;100459.00;;;12.99;100.00
69772;BME280;57046;45.988;18.664;2023-05-12T03:04:41;100461.72;;;12.99;100.00
69772;BME280;57046;45.988;18.664;2023-05-12T03:07:09;100428.13;;;12.79;100.00
69772;BME280;57046;45.988;18.664;2023-05-12T03:09:34;100458.09;;;12.95;100.00
69772;BME280;57046;45.988;18.664;2023-05-12T03:12:00;100437.03;;;12.80;100.00
69772;BME280;57046;45.988;18.664;2023-05-12T03:14:25;100471.44;;;13.00;100.00
69772;BME280;57046;45.988;18.664;2023-05-12T03:16:50;100464.75;;;12.97;100.00
69772;BME280;57046;45.988;18.664;2023-05-12T03:19:15;100475.59;;;12.97;100.00
69772;BME280;57046;45.988;18.664;2023-05-12T03:21:41;100464.31;;;12.95;100.00
69772;BME280;57046;45.988;18.664;2023-05-12T03:24:06;100481.38;;;12.96;100.00
69772;BME280;57046;45.988;18.664;2023-05-12T03:26:32;100477.41;;;12.93;100.00
69772;BME280;57046;45.988;18.664;2023-05-12T03:28:57;100473.91;;;12.93;100.00
69772;BME280;57046;45.988;18.664;2023-05-12T03:31:22;100474.25;;;12.91;100.00
69772;BME280;57046;45.988;18.664;2023-05-12T03:33:48;100478.56;;;12.92;100.00
69772;BME280;57046;45.988;18.664;2023-05-12T03:36:13;100473.56;;;12.94;100.00
69772;BME280;57046;45.988;18.664;2023-05-12T03:38:38;100473.91;;;12.93;100.00
69772;BME280;57046;45.988;18.664;2023-05-12T03:41:05;100476.16;;;12.91;100.00
69772;BME280;57046;45.988;18.664;2023-05-12T03:43:30;100470.84;;;12.94;100.00
69772;BME280;57046;45.988;18.664;2023-05-12T03:45:56;100465.00;;;12.92;100.00
69772;BME280;57046;45.988;18.664;2023-05-12T03:48:21;100478.88;;;12.91;100.00
69772;BME280;57046;45.988;18.664;2023-05-12T03:50:47;100471.97;;;12.93;100.00
69772;BME280;57046;45.988;18.664;2023-05-12T03:53:12;100479.22;;;12.89;100.00
69772;BME280;57046;45.988;18.664;2023-05-12T03:55:37;100476.84;;;12.88;100.00
69772;BME280;57046;45.988;18.664;2023-05-12T03:58:03;100480.00;;;12.90;100.00
69772;BME280;57046;45.988;18.664;2023-05-12T04:00:28;100474.38;;;12.95;100.00
69772;BME280;57046;45.988;18.664;2023-05-12T04:02:53;100478.56;;;12.92;100.00
69772;BME280;57046;45.988;18.664;2023-05-12T04:05:19;100479.53;;;12.88;100.00
69772;BME280;57046;45.988;18.664;2023-05-12T04:07:44;100482.25;;;12.88;100.00
69772;BME280;57046;45.988;18.664;2023-05-12T04:10:09;100488.25;;;12.93;100.00
69772;BME280;57046;45.988;18.664;2023-05-12T04:12:35;100478.56;;;12.92;100.00
69772;BME280;57046;45.988;18.664;2023-05-12T04:15:00;100471.72;;;12.86;100.00
69772;BME280;57046;45.988;18.664;2023-05-12T04:17:25;100486.34;;;12.94;100.00
69772;BME280;57046;45.988;18.664;2023-05-12T04:19:51;100488.38;;;12.97;100.00
69772;BME280;57046;45.988;18.664;2023-05-12T04:22:16;100495.41;;;12.98;100.00
69772;BME280;57046;45.988;18.664;2023-05-12T04:24:41;100497.78;;;12.99;100.00
69772;BME280;57046;45.988;18.664;2023-05-12T04:27:07;100493.13;;;13.00;100.00
69772;BME280;57046;45.988;18.664;2023-05-12T04:29:32;100491.88;;;12.97;100.00
69772;BME280;57046;45.988;18.664;2023-05-12T04:31:57;100488.19;;;13.02;100.00
69772;BME280;57046;45.988;18.664;2023-05-12T04:34:23;100493.59;;;13.02;100.00
69772;BME280;57046;45.988;18.664;2023-05-12T04:36:48;100488.84;;;12.99;100.00
69772;BME280;57046;45.988;18.664;2023-05-12T04:39:13;100496.31;;;13.02;100.00
69772;BME280;57046;45.988;18.664;2023-05-12T04:41:39;100499.03;;;13.02;100.00
69772;BME280;57046;45.988;18.664;2023-05-12T04:44:04;100487.69;;;13.00;100.00
69772;BME280;57046;45.988;18.664;2023-05-12T04:46:30;100493.25;;;13.03;100.00
69772;BME280;57046;45.988;18.664;2023-05-12T04:48:55;100488.19;;;13.02;100.00
69772;BME280;57046;45.988;18.664;2023-05-12T04:51:20;100488.31;;;13.05;100.00
69772;BME280;57046;45.988;18.664;2023-05-12T04:53:46;100488.75;;;13.07;100.00
69772;BME280;57046;45.988;18.664;2023-05-12T04:56:11;100484.78;;;13.05;100.00
69772;BME280;57046;45.988;18.664;2023-05-12T04:58:37;100487.91;;;13.15;100.00
69772;BME280;57046;45.988;18.664;2023-05-12T05:01:02;100488.91;;;13.11;100.00
69772;BME280;57046;45.988;18.664;2023-05-12T05:03:28;100483.81;;;13.09;100.00
69772;BME280;57046;45.988;18.664;2023-05-12T05:05:53;100483.72;;;13.18;100.00
69772;BME280;57046;45.988;18.664;2023-05-12T05:08:18;100488.34;;;13.17;100.00
69772;BME280;57046;45.988;18.664;2023-05-12T05:10:44;100490.38;;;13.20;100.00
69772;BME280;57046;45.988;18.664;2023-05-12T05:13:09;100492.78;;;13.22;99.92
69772;BME280;57046;45.988;18.664;2023-05-12T05:15:34;100490.06;;;13.22;99.82
69772;BME280;57046;45.988;18.664;2023-05-12T05:18:00;100491.31;;;13.24;100.00
69772;BME280;57046;45.988;18.664;2023-05-12T05:20:25;100489.06;;;13.27;100.00
69772;BME280;57046;45.988;18.664;2023-05-12T05:22:51;100494.03;;;13.24;100.00
69772;BME280;57046;45.988;18.664;2023-05-12T05:25:16;100497.09;;;13.23;100.00
69772;BME280;57046;45.988;18.664;2023-05-12T05:27:41;100483.28;;;13.28;100.00
69772;BME280;57046;45.988;18.664;2023-05-12T05:30:07;100483.41;;;13.19;100.00
69772;BME280;57046;45.988;18.664;2023-05-12T05:32:34;100498.78;;;13.27;100.00
69772;BME280;57046;45.988;18.664;2023-05-12T05:34:59;100496.78;;;13.37;100.00
69772;BME280;57046;45.988;18.664;2023-05-12T05:37:25;100491.22;;;13.33;100.00
69772;BME280;57046;45.988;18.664;2023-05-12T05:39:50;100506.94;;;13.40;100.00
69772;BME280;57046;45.988;18.664;2023-05-12T05:42:16;100508.78;;;13.72;99.68
69772;BME280;57046;45.988;18.664;2023-05-12T05:44:41;100502.75;;;13.42;100.00
69772;BME280;57046;45.988;18.664;2023-05-12T05:47:06;100505.47;;;13.42;100.00
69772;BME280;57046;45.988;18.664;2023-05-12T05:49:32;100497.44;;;13.46;100.00
69772;BME280;57046;45.988;18.664;2023-05-12T05:51:57;100502.00;;;13.54;100.00
69772;BME280;57046;45.988;18.664;2023-05-12T05:54:23;100492.50;;;13.60;100.00
69772;BME280;57046;45.988;18.664;2023-05-12T05:56:48;100487.50;;;13.62;100.00
69772;BME280;57046;45.988;18.664;2023-05-12T05:59:13;100497.78;;;13.68;100.00
69772;BME280;57046;45.988;18.664;2023-05-12T06:01:39;100495.88;;;13.69;100.00
69772;BME280;57046;45.988;18.664;2023-05-12T06:04:04;100507.09;;;13.80;100.00
69772;BME280;57046;45.988;18.664;2023-05-12T06:06:30;100501.75;;;13.83;98.81
69772;BME280;57046;45.988;18.664;2023-05-12T06:08:55;100506.31;;;13.91;98.58
69772;BME280;57046;45.988;18.664;2023-05-12T06:11:20;100507.53;;;13.94;98.42
69772;BME280;57046;45.988;18.664;2023-05-12T06:13:46;100507.41;;;14.02;97.89
69772;BME280;57046;45.988;18.664;2023-05-12T06:16:11;100522.38;;;14.08;98.21
69772;BME280;57046;45.988;18.664;2023-05-12T06:18:37;100516.25;;;14.11;96.56
69772;BME280;57046;45.988;18.664;2023-05-12T06:21:03;100526.06;;;14.16;96.14
69772;BME280;57046;45.988;18.664;2023-05-12T06:23:29;100517.00;;;14.24;95.05
69772;BME280;57046;45.988;18.664;2023-05-12T06:25:54;100521.09;;;14.18;96.52
69772;BME280;57046;45.988;18.664;2023-05-12T06:28:20;100517.69;;;14.21;95.03
69772;BME280;57046;45.988;18.664;2023-05-12T06:30:45;100514.28;;;14.24;95.43
69772;BME280;57046;45.988;18.664;2023-05-12T06:33:10;100518.59;;;14.25;95.55
69772;BME280;57046;45.988;18.664;2023-05-12T06:35:36;100521.06;;;14.30;94.56
69772;BME280;57046;45.988;18.664;2023-05-12T06:38:01;100527.88;;;14.36;95.42
69772;BME280;57046;45.988;18.664;2023-05-12T06:40:26;100531.25;;;14.33;94.69
69772;BME280;57046;45.988;18.664;2023-05-12T06:42:52;100531.63;;;14.32;94.10
69772;BME280;57046;45.988;18.664;2023-05-12T06:45:17;100526.75;;;14.25;93.26
69772;BME280;57046;45.988;18.664;2023-05-12T06:47:42;100537.97;;;14.36;94.64
69772;BME280;57046;45.988;18.664;2023-05-12T06:50:08;100537.97;;;14.36;93.89
69772;BME280;57046;45.988;18.664;2023-05-12T06:52:34;100533.97;;;14.33;94.93
69772;BME280;57046;45.988;18.664;2023-05-12T06:54:59;100535.59;;;14.34;94.93
69772;BME280;57046;45.988;18.664;2023-05-12T06:57:25;100550.09;;;14.38;94.73
69772;BME280;57046;45.988;18.664;2023-05-12T06:59:50;100538.97;;;14.31;94.88
69772;BME280;57046;45.988;18.664;2023-05-12T07:02:15;100547.38;;;14.38;95.24
69772;BME280;57046;45.988;18.664;2023-05-12T07:04:41;100547.47;;;14.42;95.56
69772;BME280;57046;45.988;18.664;2023-05-12T07:07:06;100546.78;;;14.45;95.44
69772;BME280;57046;45.988;18.664;2023-05-12T07:09:32;100537.34;;;14.54;95.50
69772;BME280;57046;45.988;18.664;2023-05-12T07:11:57;100537.78;;;14.56;95.97
69772;BME280;57046;45.988;18.664;2023-05-12T07:14:23;100544.97;;;14.49;95.61
69772;BME280;57046;45.988;18.664;2023-05-12T07:16:48;100545.56;;;14.42;95.80
69772;BME280;57046;45.988;18.664;2023-05-12T07:19:13;100542.69;;;14.51;95.71
69772;BME280;57046;45.988;18.664;2023-05-12T07:21:39;100545.75;;;14.49;96.11
69772;BME280;57046;45.988;18.664;2023-05-12T07:24:04;100534.66;;;14.54;96.64
69772;BME280;57046;45.988;18.664;2023-05-12T07:26:30;100545.84;;;14.53;97.39
69772;BME280;57046;45.988;18.664;2023-05-12T07:28:55;100541.47;;;14.48;98.69
69772;BME280;57046;45.988;18.664;2023-05-12T07:31:20;100548.13;;;14.51;100.00
69772;BME280;57046;45.988;18.664;2023-05-12T07:33:46;100550.41;;;14.49;100.00
69772;BME280;57046;45.988;18.664;2023-05-12T07:36:11;100547.59;;;14.45;100.00
69772;BME280;57046;45.988;18.664;2023-05-12T07:38:37;100553.91;;;14.49;100.00
69772;BME280;57046;45.988;18.664;2023-05-12T07:41:02;100553.25;;;14.52;100.00
69772;BME280;57046;45.988;18.664;2023-05-12T07:43:28;100559.59;;;14.44;100.00
69772;BME280;57046;45.988;18.664;2023-05-12T07:45:53;100559.25;;;14.46;100.00
69772;BME280;57046;45.988;18.664;2023-05-12T07:48:19;100555.97;;;14.40;100.00
69772;BME280;57046;45.988;18.664;2023-05-12T07:50:44;100557.19;;;14.43;100.00
69772;BME280;57046;45.988;18.664;2023-05-12T07:53:09;100564.72;;;14.34;100.00
69772;BME280;57046;45.988;18.664;2023-05-12T07:55:35;100566.84;;;14.40;100.00
69772;BME280;57046;45.988;18.664;2023-05-12T07:58:00;100573.41;;;14.39;100.00
69772;BME280;57046;45.988;18.664;2023-05-12T08:00:26;100567.75;;;14.32;100.00
69772;BME280;57046;45.988;18.664;2023-05-12T08:02:52;100576.25;;;14.43;100.00
69772;BME280;57046;45.988;18.664;2023-05-12T08:05:17;100581.34;;;14.44;100.00
69772;BME280;57046;45.988;18.664;2023-05-12T08:07:42;100574.91;;;14.49;100.00
69772;BME280;57046;45.988;18.664;2023-05-12T08:10:11;100574.91;;;14.49;100.00
69772;BME280;57046;45.988;18.664;2023-05-12T08:12:38;100570.13;;;14.46;100.00
69772;BME280;57046;45.988;18.664;2023-05-12T08:15:03;100579.75;;;14.55;100.00
69772;BME280;57046;45.988;18.664;2023-05-12T08:17:29;100582.09;;;14.57;100.00
69772;BME280;57046;45.988;18.664;2023-05-12T08:19:54;100579.75;;;14.55;100.00
69772;BME280;57046;45.988;18.664;2023-05-12T08:22:19;100577.81;;;14.56;100.00
69772;BME280;57046;45.988;18.664;2023-05-12T08:24:45;100576.91;;;14.52;100.00
69772;BME280;57046;45.988;18.664;2023-05-12T08:27:10;100581.09;;;14.49;100.00
69772;BME280;57046;45.988;18.664;2023-05-12T08:29:36;100582.38;;;14.52;100.00
69772;BME280;57046;45.988;18.664;2023-05-12T08:32:01;100583.97;;;14.41;100.00
69772;BME280;57046;45.988;18.664;2023-05-12T08:34:27;100584.88;;;14.45;100.00
69772;BME280;57046;45.988;18.664;2023-05-12T08:36:52;100581.47;;;14.48;100.00
69772;BME280;57046;45.988;18.664;2023-05-12T08:39:19;100582.22;;;14.60;100.00
69772;BME280;57046;45.988;18.664;2023-05-12T08:42:13;100580.41;;;14.64;100.00
69772;BME280;57046;45.988;18.664;2023-05-12T08:44:42;100583.44;;;14.75;100.00
69772;BME280;57046;45.988;18.664;2023-05-12T08:47:10;100580.19;;;14.69;100.00
69772;BME280;57046;45.988;18.664;2023-05-12T08:49:37;100588.63;;;14.80;100.00
69772;BME280;57046;45.988;18.664;2023-05-12T08:52:03;100582.75;;;14.78;100.00
69772;BME280;57046;45.988;18.664;2023-05-12T08:54:29;100581.81;;;14.86;100.00
69772;BME280;57046;45.988;18.664;2023-05-12T08:56:57;100575.00;;;14.92;100.00
69772;BME280;57046;45.988;18.664;2023-05-12T08:59:23;100580.53;;;14.96;100.00
69772;BME280;57046;45.988;18.664;2023-05-12T09:01:49;100585.97;;;14.96;100.00
69772;BME280;57046;45.988;18.664;2023-05-12T09:04:16;100584.59;;;15.02;100.00
69772;BME280;57046;45.988;18.664;2023-05-12T09:06:44;100578.25;;;14.98;100.00
69772;BME280;57046;45.988;18.664;2023-05-12T09:09:12;100582.31;;;15.04;100.00
69772;BME280;57046;45.988;18.664;2023-05-12T09:11:38;100589.81;;;15.07;100.00
69772;BME280;57046;45.988;18.664;2023-05-12T09:14:17;100582.16;;;15.12;100.00
69772;BME280;57046;45.988;18.664;2023-05-12T09:16:45;100588.94;;;15.18;100.00
69772;BME280;57046;45.988;18.664;2023-05-12T09:19:11;100579.28;;;15.21;100.00
69772;BME280;57046;45.988;18.664;2023-05-12T09:21:36;100582.66;;;15.30;100.00
69772;BME280;57046;45.988;18.664;2023-05-12T09:24:04;100582.38;;;15.35;100.00
69772;BME280;57046;45.988;18.664;2023-05-12T09:26:29;100589.38;;;15.48;100.00
69772;BME280;57046;45.988;18.664;2023-05-12T09:29:04;100588.09;;;15.58;100.00
69772;BME280;57046;45.988;18.664;2023-05-12T09:31:30;100599.16;;;15.65;100.00
69772;BME280;57046;45.988;18.664;2023-05-12T09:33:57;100591.63;;;15.74;100.00
69772;BME280;57046;45.988;18.664;2023-05-12T09:36:23;100586.53;;;15.88;100.00
69772;BME280;57046;45.988;18.664;2023-05-12T09:39:02;100584.22;;;16.06;100.00
69772;BME280;57046;45.988;18.664;2023-05-12T09:41:28;100582.44;;;16.13;100.00
69772;BME280;57046;45.988;18.664;2023-05-12T09:43:53;100587.19;;;16.16;100.00
69772;BME280;57046;45.988;18.664;2023-05-12T09:46:18;100588.25;;;16.27;100.00
69772;BME280;57046;45.988;18.664;2023-05-12T09:48:46;100586.47;;;16.35;100.00
69772;BME280;57046;45.988;18.664;2023-05-12T09:51:15;100560.38;;;16.18;100.00
69772;BME280;57046;45.988;18.664;2023-05-12T09:53:41;100584.16;;;16.37;100.00
69772;BME280;57046;45.988;18.664;2023-05-12T09:56:06;100585.56;;;16.47;100.00
69772;BME280;57046;45.988;18.664;2023-05-12T09:58:32;100573.56;;;16.51;100.00
69772;BME280;57046;45.988;18.664;2023-05-12T10:00:58;100572.97;;;16.58;100.00
69772;BME280;57046;45.988;18.664;2023-05-12T10:03:25;100574.19;;;16.60;100.00
69772;BME280;57046;45.988;18.664;2023-05-12T10:05:57;100576.97;;;16.79;100.00
69772;BME280;57046;45.988;18.664;2023-05-12T10:08:37;100575.84;;;16.84;100.00
69772;BME280;57046;45.988;18.664;2023-05-12T10:11:05;100565.81;;;16.88;100.00
69772;BME280;57046;45.988;18.664;2023-05-12T10:13:32;100575.16;;;16.87;100.00
69772;BME280;57046;45.988;18.664;2023-05-12T10:15:57;100569.81;;;16.94;99.08
69772;BME280;57046;45.988;18.664;2023-05-12T10:18:24;100567.75;;;17.07;98.69
69772;BME280;57046;45.988;18.664;2023-05-12T10:20:51;100569.75;;;17.10;95.36
69772;BME280;57046;45.988;18.664;2023-05-12T10:23:18;100575.38;;;17.17;96.73
69772;BME280;57046;45.988;18.664;2023-05-12T10:25:44;100564.78;;;17.15;94.82
69772;BME280;57046;45.988;18.664;2023-05-12T10:28:09;100574.25;;;17.21;94.12
69772;BME280;57046;45.988;18.664;2023-05-12T10:30:36;100589.44;;;17.19;92.05
69772;BME280;57046;45.988;18.664;2023-05-12T10:33:02;100576.31;;;17.24;91.89
69772;BME280;57046;45.988;18.664;2023-05-12T10:35:32;100579.44;;;17.26;89.69
69772;BME280;57046;45.988;18.664;2023-05-12T10:38:15;100585.53;;;17.39;88.67
69772;BME280;57046;45.988;18.664;2023-05-12T10:41:00;100576.91;;;17.37;86.63
69772;BME280;57046;45.988;18.664;2023-05-12T10:43:28;100582.38;;;17.37;88.22
69772;BME280;57046;45.988;18.664;2023-05-12T10:51:27;100586.88;;;17.68;88.41
69772;BME280;57046;45.988;18.664;2023-05-12T10:53:56;100593.50;;;17.67;88.76
69772;BME280;57046;45.988;18.664;2023-05-12T10:56:27;100594.41;;;17.74;87.86
69772;BME280;57046;45.988;18.664;2023-05-12T10:59:18;100588.22;;;17.77;86.15
69772;BME280;57046;45.988;18.664;2023-05-12T11:04:44;100569.91;;;17.59;86.69
69772;BME280;57046;45.988;18.664;2023-05-12T11:07:10;100598.47;;;17.84;84.94
69772;BME280;57046;45.988;18.664;2023-05-12T11:09:46;100598.59;;;17.91;85.02
69772;BME280;57046;45.988;18.664;2023-05-12T11:12:12;100598.78;;;17.79;85.27
69772;BME280;57046;45.988;18.664;2023-05-12T11:14:41;100616.94;;;17.68;85.06
69772;BME280;57046;45.988;18.664;2023-05-12T11:17:07;100601.53;;;17.79;86.15
69772;BME280;57046;45.988;18.664;2023-05-12T11:19:33;100607.88;;;17.87;85.37
69772;BME280;57046;45.988;18.664;2023-05-12T11:22:05;100620.41;;;17.88;85.14
69772;BME280;57046;45.988;18.664;2023-05-12T11:24:32;100615.97;;;17.79;84.39
69772;BME280;57046;45.988;18.664;2023-05-12T11:26:57;100624.09;;;17.76;83.69
69772;BME280;57046;45.988;18.664;2023-05-12T11:29:23;100619.22;;;17.66;84.59
69772;BME280;57046;45.988;18.664;2023-05-12T11:31:50;100619.72;;;17.52;84.49
69772;BME280;57046;45.988;18.664;2023-05-12T11:34:22;100627.50;;;17.50;85.57
69772;BME280;57046;45.988;18.664;2023-05-12T11:36:51;100629.75;;;17.45;86.07
69772;BME280;57046;45.988;18.664;2023-05-12T11:39:22;100606.22;;;17.17;86.51
69772;BME280;57046;45.988;18.664;2023-05-12T11:41:49;100632.56;;;17.48;86.61
69772;BME280;57046;45.988;18.664;2023-05-12T11:44:18;100640.41;;;17.30;86.34
69772;BME280;57046;45.988;18.664;2023-05-12T11:47:00;100631.50;;;17.34;86.06
69772;BME280;57046;45.988;18.664;2023-05-12T11:49:27;100628.63;;;17.26;85.80
69772;BME280;57046;45.988;18.664;2023-05-12T11:51:54;100644.72;;;17.32;86.07
69772;BME280;57046;45.988;18.664;2023-05-12T11:54:21;100635.81;;;17.35;86.12
69772;BME280;57046;45.988;18.664;2023-05-12T11:56:48;100640.28;;;17.23;85.85
69772;BME280;57046;45.988;18.664;2023-05-12T11:59:33;100649.22;;;17.05;85.54
69772;BME280;57046;45.988;18.664;2023-05-12T12:02:00;100611.22;;;16.77;86.67
69772;BME280;57046;45.988;18.664;2023-05-12T12:04:33;100651.88;;;17.01;87.10
69772;BME280;57046;45.988;18.664;2023-05-12T12:06:59;100647.06;;;16.95;86.12
69772;BME280;57046;45.988;18.664;2023-05-12T12:09:38;100638.03;;;16.91;85.69
69772;BME280;57046;45.988;18.664;2023-05-12T12:12:04;100638.94;;;16.98;86.58
69772;BME280;57046;45.988;18.664;2023-05-12T12:14:31;100635.72;;;16.93;86.13
69772;BME280;57046;45.988;18.664;2023-05-12T12:16:57;100636.38;;;16.86;86.17
69772;BME280;57046;45.988;18.664;2023-05-12T12:19:22;100638.38;;;16.89;87.22
69772;BME280;57046;45.988;18.664;2023-05-12T12:21:48;100637.16;;;17.06;86.70
69772;BME280;57046;45.988;18.664;2023-05-12T12:24:13;100635.38;;;17.13;86.38
69772;BME280;57046;45.988;18.664;2023-05-12T12:26:39;100646.16;;;17.06;84.76
69772;BME280;57046;45.988;18.664;2023-05-12T12:29:04;100641.06;;;17.24;85.64
69772;BME280;57046;45.988;18.664;2023-05-12T12:31:29;100647.47;;;17.32;84.50
69772;BME280;57046;45.988;18.664;2023-05-12T12:33:55;100649.69;;;17.26;83.92
69772;BME280;57046;45.988;18.664;2023-05-12T12:36:20;100646.38;;;17.36;83.71
69772;BME280;57046;45.988;18.664;2023-05-12T12:38:45;100643.56;;;17.52;84.51